sensor_id;sensor_type;location;lat;lon;timestamp;P1;durP1;ratioP1;P2;durP2;ratioP2
13269;SDS011;6703;51.994;7.570;2023-05-17T00:01:00;11.27;;;2.75;;
13269;SDS011;6703;51.994;7.570;2023-05-17T00:03:29;15.40;;;3.00;;
13269;SDS011;6703;51.994;7.570;2023-05-17T00:05:57;13.32;;;2.80;;
13269;SDS011;6703;51.994;7.570;2023-05-17T00:08:25;13.32;;;3.00;;
13269;SDS011;6703;51.994;7.570;2023-05-17T00:10:52;10.63;;;3.20;;
13269;SDS011;6703;51.994;7.570;2023-05-17T00:13:20;15.48;;;3.45;;
13269;SDS011;6703;51.994;7.570;2023-05-17T00:15:48;14.13;;;3.22;;
13269;SDS011;6703;51.994;7.570;2023-05-17T00:18:16;15.48;;;3.15;;
13269;SDS011;6703;51.994;7.570;2023-05-17T00:20:45;12.85;;;3.67;;
13269;SDS011;6703;51.994;7.570;2023-05-17T00:23:13;12.25;;;3.65;;
13269;SDS011;6703;51.994;7.570;2023-05-17T00:25:40;11.77;;;3.10;;
13269;SDS011;6703;51.994;7.570;2023-05-17T00:28:08;15.15;;;2.92;;
13269;SDS011;6703;51.994;7.570;2023-05-17T00:30:36;12.23;;;2.88;;
13269;SDS011;6703;51.994;7.570;2023-05-17T00:33:03;15.38;;;3.08;;
13269;SDS011;6703;51.994;7.570;2023-05-17T00:35:31;15.38;;;3.25;;
13269;SDS011;6703;51.994;7.570;2023-05-17T00:38:00;18.35;;;3.35;;
13269;SDS011;6703;51.994;7.570;2023-05-17T00:40:28;9.70;;;2.67;;
13269;SDS011;6703;51.994;7.570;2023-05-17T00:42:55;16.02;;;2.92;;
13269;SDS011;6703;51.994;7.570;2023-05-17T00:45:23;21.53;;;3.63;;
13269;SDS011;6703;51.994;7.570;2023-05-17T00:47:52;11.25;;;2.85;;
13269;SDS011;6703;51.994;7.570;2023-05-17T00:50:20;19.90;;;3.88;;
13269;SDS011;6703;51.994;7.570;2023-05-17T00:52:48;20.23;;;3.53;;
13269;SDS011;6703;51.994;7.570;2023-05-17T00:55:19;12.95;;;2.80;;
13269;SDS011;6703;51.994;7.570;2023-05-17T00:57:47;19.80;;;3.60;;
13269;SDS011;6703;51.994;7.570;2023-05-17T01:00:15;10.68;;;3.00;;
13269;SDS011;6703;51.994;7.570;2023-05-17T01:02:43;15.13;;;2.95;;
13269;SDS011;6703;51.994;7.570;2023-05-17T01:05:13;21.48;;;3.22;;
13269;SDS011;6703;51.994;7.570;2023-05-17T01:07:41;18.33;;;2.85;;
13269;SDS011;6703;51.994;7.570;2023-05-17T01:10:09;12.70;;;2.97;;
13269;SDS011;6703;51.994;7.570;2023-05-17T01:12:42;14.83;;;2.97;;
13269;SDS011;6703;51.994;7.570;2023-05-17T01:15:14;13.80;;;2.85;;
13269;SDS011;6703;51.994;7.570;2023-05-17T01:17:46;14.38;;;3.20;;
13269;SDS011;6703;51.994;7.570;2023-05-17T01:20:18;16.55;;;3.53;;
13269;SDS011;6703;51.994;7.570;2023-05-17T01:22:50;21.83;;;3.45;;
13269;SDS011;6703;51.994;7.570;2023-05-17T01:25:26;14.52;;;3.08;;
13269;SDS011;6703;51.994;7.570;2023-05-17T01:27:58;20.90;;;3.53;;
13269;SDS011;6703;51.994;7.570;2023-05-17T01:30:27;12.52;;;3.20;;
13269;SDS011;6703;51.994;7.570;2023-05-17T01:32:56;12.40;;;2.80;;
13269;SDS011;6703;51.994;7.570;2023-05-17T01:35:24;19.85;;;3.65;;
13269;SDS011;6703;51.994;7.570;2023-05-17T01:37:52;21.50;;;4.10;;
13269;SDS011;6703;51.994;7.570;2023-05-17T01:40:21;15.05;;;3.45;;
13269;SDS011;6703;51.994;7.570;2023-05-17T01:42:53;20.38;;;3.35;;
13269;SDS011;6703;51.994;7.570;2023-05-17T01:45:25;18.35;;;3.72;;
13269;SDS011;6703;51.994;7.570;2023-05-17T01:47:59;18.13;;;3.20;;
13269;SDS011;6703;51.994;7.570;2023-05-17T01:50:35;23.33;;;3.90;;
13269;SDS011;6703;51.994;7.570;2023-05-17T01:53:06;22.25;;;3.85;;
13269;SDS011;6703;51.994;7.570;2023-05-17T01:55:40;16.73;;;4.00;;
13269;SDS011;6703;51.994;7.570;2023-05-17T01:58:09;11.25;;;3.33;;
13269;SDS011;6703;51.994;7.570;2023-05-17T02:00:40;18.75;;;3.72;;
13269;SDS011;6703;51.994;7.570;2023-05-17T02:03:15;20.27;;;3.50;;
13269;SDS011;6703;51.994;7.570;2023-05-17T02:05:43;21.10;;;3.38;;
13269;SDS011;6703;51.994;7.570;2023-05-17T02:08:11;18.75;;;3.80;;
13269;SDS011;6703;51.994;7.570;2023-05-17T02:10:39;21.23;;;3.80;;
13269;SDS011;6703;51.994;7.570;2023-05-17T02:13:07;15.60;;;3.15;;
13269;SDS011;6703;51.994;7.570;2023-05-17T02:15:35;20.20;;;4.20;;
13269;SDS011;6703;51.994;7.570;2023-05-17T02:18:04;16.50;;;4.38;;
13269;SDS011;6703;51.994;7.570;2023-05-17T02:20:32;17.95;;;3.78;;
13269;SDS011;6703;51.994;7.570;2023-05-17T02:23:00;19.08;;;3.67;;
13269;SDS011;6703;51.994;7.570;2023-05-17T02:25:28;19.08;;;3.83;;
13269;SDS011;6703;51.994;7.570;2023-05-17T02:27:56;22.23;;;3.95;;
13269;SDS011;6703;51.994;7.570;2023-05-17T02:30:24;15.60;;;3.40;;
13269;SDS011;6703;51.994;7.570;2023-05-17T02:32:52;18.60;;;4.07;;
13269;SDS011;6703;51.994;7.570;2023-05-17T02:35:23;14.60;;;3.53;;
13269;SDS011;6703;51.994;7.570;2023-05-17T02:37:51;16.03;;;3.70;;
13269;SDS011;6703;51.994;7.570;2023-05-17T02:40:19;25.30;;;4.13;;
13269;SDS011;6703;51.994;7.570;2023-05-17T02:42:46;21.20;;;4.40;;
13269;SDS011;6703;51.994;7.570;2023-05-17T02:45:14;22.73;;;4.70;;
13269;SDS011;6703;51.994;7.570;2023-05-17T02:47:42;23.02;;;4.47;;
13269;SDS011;6703;51.994;7.570;2023-05-17T02:50:10;25.58;;;4.07;;
13269;SDS011;6703;51.994;7.570;2023-05-17T02:52:39;24.40;;;4.43;;
13269;SDS011;6703;51.994;7.570;2023-05-17T02:55:07;18.05;;;4.25;;
13269;SDS011;6703;51.994;7.570;2023-05-17T02:57:36;18.17;;;3.97;;
13269;SDS011;6703;51.994;7.570;2023-05-17T03:00:04;16.00;;;3.80;;
13269;SDS011;6703;51.994;7.570;2023-05-17T03:02:33;16.23;;;3.72;;
13269;SDS011;6703;51.994;7.570;2023-05-17T03:05:01;21.80;;;4.93;;
13269;SDS011;6703;51.994;7.570;2023-05-17T03:07:30;33.45;;;4.63;;
13269;SDS011;6703;51.994;7.570;2023-05-17T03:09:59;26.63;;;5.22;;
13269;SDS011;6703;51.994;7.570;2023-05-17T03:12:27;30.90;;;4.68;;
13269;SDS011;6703;51.994;7.570;2023-05-17T03:14:55;22.80;;;4.47;;
13269;SDS011;6703;51.994;7.570;2023-05-17T03:17:22;17.08;;;4.75;;
13269;SDS011;6703;51.994;7.570;2023-05-17T03:19:50;22.92;;;4.18;;
13269;SDS011;6703;51.994;7.570;2023-05-17T03:22:18;19.88;;;4.40;;
13269;SDS011;6703;51.994;7.570;2023-05-17T03:24:46;33.53;;;5.03;;
13269;SDS011;6703;51.994;7.570;2023-05-17T03:27:15;23.45;;;4.47;;
13269;SDS011;6703;51.994;7.570;2023-05-17T03:29:43;20.88;;;4.55;;
13269;SDS011;6703;51.994;7.570;2023-05-17T03:32:11;19.73;;;4.32;;
13269;SDS011;6703;51.994;7.570;2023-05-17T03:34:39;19.90;;;4.72;;
13269;SDS011;6703;51.994;7.570;2023-05-17T03:37:07;13.23;;;3.55;;
13269;SDS011;6703;51.994;7.570;2023-05-17T03:39:35;19.45;;;3.90;;
13269;SDS011;6703;51.994;7.570;2023-05-17T03:42:02;9.43;;;4.15;;
13269;SDS011;6703;51.994;7.570;2023-05-17T03:44:32;13.45;;;3.30;;
13269;SDS011;6703;51.994;7.570;2023-05-17T03:46:59;20.60;;;4.63;;
13269;SDS011;6703;51.994;7.570;2023-05-17T03:49:27;14.65;;;3.70;;
13269;SDS011;6703;51.994;7.570;2023-05-17T03:51:55;18.53;;;4.30;;
13269;SDS011;6703;51.994;7.570;2023-05-17T03:54:23;12.73;;;4.20;;
13269;SDS011;6703;51.994;7.570;2023-05-17T03:56:50;22.73;;;3.88;;
13269;SDS011;6703;51.994;7.570;2023-05-17T03:59:18;23.23;;;4.60;;
13269;SDS011;6703;51.994;7.570;2023-05-17T04:01:47;20.08;;;4.57;;
13269;SDS011;6703;51.994;7.570;2023-05-17T04:04:15;24.38;;;4.60;;
13269;SDS011;6703;51.994;7.570;2023-05-17T04:06:43;29.42;;;5.00;;
13269;SDS011;6703;51.994;7.570;2023-05-17T04:09:11;22.45;;;4.97;;
13269;SDS011;6703;51.994;7.570;2023-05-17T04:11:40;22.42;;;5.18;;
13269;SDS011;6703;51.994;7.570;2023-05-17T04:14:08;17.50;;;4.97;;
13269;SDS011;6703;51.994;7.570;2023-05-17T04:16:36;22.10;;;5.00;;
13269;SDS011;6703;51.994;7.570;2023-05-17T04:19:05;24.38;;;5.13;;
13269;SDS011;6703;51.994;7.570;2023-05-17T04:21:33;18.80;;;4.88;;
13269;SDS011;6703;51.994;7.570;2023-05-17T04:24:01;18.88;;;4.63;;
13269;SDS011;6703;51.994;7.570;2023-05-17T04:26:29;24.23;;;4.50;;
13269;SDS011;6703;51.994;7.570;2023-05-17T04:28:57;26.07;;;5.10;;
13269;SDS011;6703;51.994;7.570;2023-05-17T04:31:25;20.13;;;4.70;;
13269;SDS011;6703;51.994;7.570;2023-05-17T04:33:52;33.63;;;4.97;;
13269;SDS011;6703;51.994;7.570;2023-05-17T04:36:22;23.88;;;5.78;;
13269;SDS011;6703;51.994;7.570;2023-05-17T04:38:54;21.00;;;4.57;;
13269;SDS011;6703;51.994;7.570;2023-05-17T04:41:22;22.73;;;4.60;;
13269;SDS011;6703;51.994;7.570;2023-05-17T04:43:50;23.83;;;5.00;;
13269;SDS011;6703;51.994;7.570;2023-05-17T04:46:17;20.88;;;4.95;;
13269;SDS011;6703;51.994;7.570;2023-05-17T04:48:45;25.70;;;4.83;;
13269;SDS011;6703;51.994;7.570;2023-05-17T04:51:13;17.00;;;4.13;;
13269;SDS011;6703;51.994;7.570;2023-05-17T04:53:42;15.77;;;4.20;;
13269;SDS011;6703;51.994;7.570;2023-05-17T04:56:10;20.77;;;4.15;;
13269;SDS011;6703;51.994;7.570;2023-05-17T04:58:38;18.60;;;4.47;;
13269;SDS011;6703;51.994;7.570;2023-05-17T05:01:06;20.40;;;4.68;;
13269;SDS011;6703;51.994;7.570;2023-05-17T05:03:34;25.40;;;4.22;;
13269;SDS011;6703;51.994;7.570;2023-05-17T05:06:03;16.27;;;4.07;;
13269;SDS011;6703;51.994;7.570;2023-05-17T05:08:31;23.90;;;4.63;;
13269;SDS011;6703;51.994;7.570;2023-05-17T05:11:01;21.63;;;4.47;;
13269;SDS011;6703;51.994;7.570;2023-05-17T05:13:29;22.90;;;4.28;;
13269;SDS011;6703;51.994;7.570;2023-05-17T05:15:56;27.95;;;5.03;;
13269;SDS011;6703;51.994;7.570;2023-05-17T05:18:24;14.50;;;3.83;;
13269;SDS011;6703;51.994;7.570;2023-05-17T05:20:52;20.13;;;3.70;;
13269;SDS011;6703;51.994;7.570;2023-05-17T05:23:20;23.98;;;3.60;;
13269;SDS011;6703;51.994;7.570;2023-05-17T05:25:48;24.35;;;3.80;;
13269;SDS011;6703;51.994;7.570;2023-05-17T05:28:17;18.92;;;3.65;;
13269;SDS011;6703;51.994;7.570;2023-05-17T05:30:45;20.88;;;3.67;;
13269;SDS011;6703;51.994;7.570;2023-05-17T05:33:12;20.00;;;3.42;;
13269;SDS011;6703;51.994;7.570;2023-05-17T05:35:40;17.15;;;2.60;;
13269;SDS011;6703;51.994;7.570;2023-05-17T05:38:08;19.42;;;3.35;;
13269;SDS011;6703;51.994;7.570;2023-05-17T05:40:36;26.37;;;3.23;;
13269;SDS011;6703;51.994;7.570;2023-05-17T05:43:04;25.92;;;3.13;;
13269;SDS011;6703;51.994;7.570;2023-05-17T05:45:33;21.92;;;3.13;;
13269;SDS011;6703;51.994;7.570;2023-05-17T05:48:01;20.52;;;3.08;;
13269;SDS011;6703;51.994;7.570;2023-05-17T05:50:30;18.60;;;2.55;;
13269;SDS011;6703;51.994;7.570;2023-05-17T05:52:58;16.02;;;3.30;;
13269;SDS011;6703;51.994;7.570;2023-05-17T05:55:40;29.50;;;2.70;;
13269;SDS011;6703;51.994;7.570;2023-05-17T05:58:08;20.38;;;2.70;;
13269;SDS011;6703;51.994;7.570;2023-05-17T06:00:37;14.30;;;2.22;;
13269;SDS011;6703;51.994;7.570;2023-05-17T06:03:05;14.25;;;2.47;;
13269;SDS011;6703;51.994;7.570;2023-05-17T06:05:33;21.77;;;2.67;;
13269;SDS011;6703;51.994;7.570;2023-05-17T06:08:01;22.00;;;2.15;;
13269;SDS011;6703;51.994;7.570;2023-05-17T06:10:29;17.55;;;2.60;;
13269;SDS011;6703;51.994;7.570;2023-05-17T06:12:57;15.85;;;2.60;;
13269;SDS011;6703;51.994;7.570;2023-05-17T06:15:25;22.10;;;2.80;;
13269;SDS011;6703;51.994;7.570;2023-05-17T06:17:55;16.00;;;2.10;;
13269;SDS011;6703;51.994;7.570;2023-05-17T06:20:22;20.63;;;2.42;;
13269;SDS011;6703;51.994;7.570;2023-05-17T06:22:50;25.83;;;3.17;;
13269;SDS011;6703;51.994;7.570;2023-05-17T06:25:18;12.77;;;2.17;;
13269;SDS011;6703;51.994;7.570;2023-05-17T06:27:46;15.23;;;1.50;;
13269;SDS011;6703;51.994;7.570;2023-05-17T06:30:13;12.40;;;2.20;;
13269;SDS011;6703;51.994;7.570;2023-05-17T06:32:41;15.65;;;1.80;;
13269;SDS011;6703;51.994;7.570;2023-05-17T06:35:11;11.30;;;2.10;;
13269;SDS011;6703;51.994;7.570;2023-05-17T06:37:38;19.00;;;1.87;;
13269;SDS011;6703;51.994;7.570;2023-05-17T06:40:09;11.18;;;1.60;;
13269;SDS011;6703;51.994;7.570;2023-05-17T06:42:42;14.35;;;1.75;;
13269;SDS011;6703;51.994;7.570;2023-05-17T06:45:10;20.08;;;2.33;;
13269;SDS011;6703;51.994;7.570;2023-05-17T06:47:38;10.82;;;1.88;;
13269;SDS011;6703;51.994;7.570;2023-05-17T06:50:06;17.33;;;1.80;;
13269;SDS011;6703;51.994;7.570;2023-05-17T06:52:47;21.23;;;2.53;;
13269;SDS011;6703;51.994;7.570;2023-05-17T06:55:14;11.93;;;1.70;;
13269;SDS011;6703;51.994;7.570;2023-05-17T06:57:42;13.07;;;2.23;;
13269;SDS011;6703;51.994;7.570;2023-05-17T07:00:10;11.38;;;1.40;;
13269;SDS011;6703;51.994;7.570;2023-05-17T07:05:41;10.48;;;1.55;;
13269;SDS011;6703;51.994;7.570;2023-05-17T07:08:10;9.32;;;1.20;;
13269;SDS011;6703;51.994;7.570;2023-05-17T07:10:38;6.95;;;1.23;;
13269;SDS011;6703;51.994;7.570;2023-05-17T07:13:05;10.30;;;1.47;;
13269;SDS011;6703;51.994;7.570;2023-05-17T07:15:33;8.85;;;0.90;;
13269;SDS011;6703;51.994;7.570;2023-05-17T07:18:01;15.73;;;1.30;;
13269;SDS011;6703;51.994;7.570;2023-05-17T07:20:29;13.77;;;1.33;;
13269;SDS011;6703;51.994;7.570;2023-05-17T07:22:56;11.35;;;1.50;;
13269;SDS011;6703;51.994;7.570;2023-05-17T07:25:26;8.60;;;1.20;;
13269;SDS011;6703;51.994;7.570;2023-05-17T07:27:54;11.80;;;1.90;;
13269;SDS011;6703;51.994;7.570;2023-05-17T07:30:22;8.73;;;1.50;;
13269;SDS011;6703;51.994;7.570;2023-05-17T07:32:50;9.70;;;1.55;;
13269;SDS011;6703;51.994;7.570;2023-05-17T07:35:18;10.10;;;1.63;;
13269;SDS011;6703;51.994;7.570;2023-05-17T07:37:47;15.90;;;1.30;;
13269;SDS011;6703;51.994;7.570;2023-05-17T07:40:15;14.82;;;1.55;;
13269;SDS011;6703;51.994;7.570;2023-05-17T07:42:44;13.30;;;2.00;;
13269;SDS011;6703;51.994;7.570;2023-05-17T07:45:12;9.52;;;1.02;;
13269;SDS011;6703;51.994;7.570;2023-05-17T07:47:40;11.38;;;1.20;;
13269;SDS011;6703;51.994;7.570;2023-05-17T07:50:08;11.68;;;1.48;;
13269;SDS011;6703;51.994;7.570;2023-05-17T07:52:37;10.02;;;1.52;;
13269;SDS011;6703;51.994;7.570;2023-05-17T07:55:05;6.70;;;1.30;;
13269;SDS011;6703;51.994;7.570;2023-05-17T07:57:34;13.90;;;1.67;;
13269;SDS011;6703;51.994;7.570;2023-05-17T08:00:04;14.75;;;1.58;;
13269;SDS011;6703;51.994;7.570;2023-05-17T08:02:34;14.15;;;1.27;;
13269;SDS011;6703;51.994;7.570;2023-05-17T08:05:01;9.17;;;1.20;;
13269;SDS011;6703;51.994;7.570;2023-05-17T08:07:29;8.90;;;1.23;;
13269;SDS011;6703;51.994;7.570;2023-05-17T08:09:57;7.47;;;1.25;;
13269;SDS011;6703;51.994;7.570;2023-05-17T08:12:25;11.65;;;1.73;;
13269;SDS011;6703;51.994;7.570;2023-05-17T08:14:53;7.30;;;1.10;;
13269;SDS011;6703;51.994;7.570;2023-05-17T08:17:22;8.30;;;1.20;;
13269;SDS011;6703;51.994;7.570;2023-05-17T08:19:50;7.43;;;1.23;;
13269;SDS011;6703;51.994;7.570;2023-05-17T08:22:18;10.43;;;1.75;;
13269;SDS011;6703;51.994;7.570;2023-05-17T08:24:45;7.70;;;1.20;;
13269;SDS011;6703;51.994;7.570;2023-05-17T08:27:13;8.80;;;1.30;;
13269;SDS011;6703;51.994;7.570;2023-05-17T08:29:41;12.90;;;1.70;;
13269;SDS011;6703;51.994;7.570;2023-05-17T08:32:08;11.52;;;1.75;;
13269;SDS011;6703;51.994;7.570;2023-05-17T08:34:38;16.63;;;1.90;;
13269;SDS011;6703;51.994;7.570;2023-05-17T08:37:05;18.80;;;1.63;;
13269;SDS011;6703;51.994;7.570;2023-05-17T08:39:33;9.13;;;1.40;;
13269;SDS011;6703;51.994;7.570;2023-05-17T08:42:01;17.23;;;1.73;;
13269;SDS011;6703;51.994;7.570;2023-05-17T08:44:29;10.17;;;1.43;;
13269;SDS011;6703;51.994;7.570;2023-05-17T08:46:57;8.88;;;1.65;;
13269;SDS011;6703;51.994;7.570;2023-05-17T08:49:26;11.77;;;1.55;;
13269;SDS011;6703;51.994;7.570;2023-05-17T08:51:56;11.63;;;1.50;;
13269;SDS011;6703;51.994;7.570;2023-05-17T08:54:26;10.25;;;1.35;;
13269;SDS011;6703;51.994;7.570;2023-05-17T08:56:54;13.90;;;1.38;;
13269;SDS011;6703;51.994;7.570;2023-05-17T08:59:25;11.75;;;1.50;;
13269;SDS011;6703;51.994;7.570;2023-05-17T09:01:59;10.25;;;1.38;;
13269;SDS011;6703;51.994;7.570;2023-05-17T09:04:27;15.82;;;2.13;;
13269;SDS011;6703;51.994;7.570;2023-05-17T09:06:57;11.57;;;1.58;;
13269;SDS011;6703;51.994;7.570;2023-05-17T09:09:25;11.00;;;1.42;;
13269;SDS011;6703;51.994;7.570;2023-05-17T09:11:53;9.63;;;1.15;;
13269;SDS011;6703;51.994;7.570;2023-05-17T09:14:21;12.73;;;1.50;;
13269;SDS011;6703;51.994;7.570;2023-05-17T09:16:50;13.00;;;1.85;;
13269;SDS011;6703;51.994;7.570;2023-05-17T09:19:22;11.35;;;1.58;;
13269;SDS011;6703;51.994;7.570;2023-05-17T09:21:50;6.85;;;1.10;;
13269;SDS011;6703;51.994;7.570;2023-05-17T09:24:19;7.85;;;1.35;;
13269;SDS011;6703;51.994;7.570;2023-05-17T09:26:54;7.63;;;1.30;;
13269;SDS011;6703;51.994;7.570;2023-05-17T09:29:29;9.05;;;1.40;;
13269;SDS011;6703;51.994;7.570;2023-05-17T09:31:58;10.82;;;1.27;;
13269;SDS011;6703;51.994;7.570;2023-05-17T09:34:39;11.32;;;1.23;;
13269;SDS011;6703;51.994;7.570;2023-05-17T09:37:11;11.13;;;1.60;;
13269;SDS011;6703;51.994;7.570;2023-05-17T09:39:42;5.90;;;0.90;;
13269;SDS011;6703;51.994;7.570;2023-05-17T09:42:11;7.65;;;1.20;;
13269;SDS011;6703;51.994;7.570;2023-05-17T09:44:49;8.73;;;1.52;;
13269;SDS011;6703;51.994;7.570;2023-05-17T09:47:22;13.43;;;1.50;;
13269;SDS011;6703;51.994;7.570;2023-05-17T09:49:51;10.95;;;1.23;;
13269;SDS011;6703;51.994;7.570;2023-05-17T09:52:19;5.80;;;1.20;;
13269;SDS011;6703;51.994;7.570;2023-05-17T09:54:52;9.60;;;1.60;;
13269;SDS011;6703;51.994;7.570;2023-05-17T09:57:20;6.27;;;1.63;;
13269;SDS011;6703;51.994;7.570;2023-05-17T09:59:48;12.63;;;1.27;;
13269;SDS011;6703;51.994;7.570;2023-05-17T10:02:22;9.65;;;1.27;;
13269;SDS011;6703;51.994;7.570;2023-05-17T10:04:55;9.40;;;1.17;;
13269;SDS011;6703;51.994;7.570;2023-05-17T10:07:23;6.47;;;1.07;;
13269;SDS011;6703;51.994;7.570;2023-05-17T10:09:54;8.43;;;1.15;;
13269;SDS011;6703;51.994;7.570;2023-05-17T10:12:24;9.52;;;1.20;;
13269;SDS011;6703;51.994;7.570;2023-05-17T10:14:55;6.32;;;1.20;;
13269;SDS011;6703;51.994;7.570;2023-05-17T10:17:25;14.57;;;2.20;;
13269;SDS011;6703;51.994;7.570;2023-05-17T10:19:55;11.37;;;1.43;;
13269;SDS011;6703;51.994;7.570;2023-05-17T10:22:23;5.38;;;1.10;;
13269;SDS011;6703;51.994;7.570;2023-05-17T10:24:55;10.30;;;0.98;;
13269;SDS011;6703;51.994;7.570;2023-05-17T10:27:24;7.85;;;1.25;;
13269;SDS011;6703;51.994;7.570;2023-05-17T10:29:52;4.35;;;1.00;;
13269;SDS011;6703;51.994;7.570;2023-05-17T10:32:20;4.70;;;1.15;;
13269;SDS011;6703;51.994;7.570;2023-05-17T10:34:52;8.82;;;1.27;;
13269;SDS011;6703;51.994;7.570;2023-05-17T10:37:36;8.02;;;1.10;;
13269;SDS011;6703;51.994;7.570;2023-05-17T10:40:06;11.50;;;1.30;;
13269;SDS011;6703;51.994;7.570;2023-05-17T10:42:38;8.82;;;1.70;;
13269;SDS011;6703;51.994;7.570;2023-05-17T10:45:07;8.57;;;1.10;;
13269;SDS011;6703;51.994;7.570;2023-05-17T10:47:38;11.70;;;1.38;;
13269;SDS011;6703;51.994;7.570;2023-05-17T10:50:08;7.35;;;1.30;;
13269;SDS011;6703;51.994;7.570;2023-05-17T10:52:39;11.13;;;1.30;;
13269;SDS011;6703;51.994;7.570;2023-05-17T10:55:13;8.95;;;1.60;;
13269;SDS011;6703;51.994;7.570;2023-05-17T10:57:45;22.05;;;1.90;;
13269;SDS011;6703;51.994;7.570;2023-05-17T11:00:37;71.33;;;4.97;;
13269;SDS011;6703;51.994;7.570;2023-05-17T11:03:09;8.57;;;2.05;;
13269;SDS011;6703;51.994;7.570;2023-05-17T11:05:40;9.23;;;1.40;;
13269;SDS011;6703;51.994;7.570;2023-05-17T11:08:12;7.65;;;1.65;;
13269;SDS011;6703;51.994;7.570;2023-05-17T11:13:44;11.23;;;1.60;;
13269;SDS011;6703;51.994;7.570;2023-05-17T11:16:13;5.57;;;1.13;;
13269;SDS011;6703;51.994;7.570;2023-05-17T11:18:47;10.50;;;2.05;;
13269;SDS011;6703;51.994;7.570;2023-05-17T11:21:16;8.65;;;1.40;;
13269;SDS011;6703;51.994;7.570;2023-05-17T11:23:45;7.65;;;1.20;;
13269;SDS011;6703;51.994;7.570;2023-05-17T11:26:16;7.07;;;1.30;;
13269;SDS011;6703;51.994;7.570;2023-05-17T11:28:48;7.15;;;1.35;;
13269;SDS011;6703;51.994;7.570;2023-05-17T11:31:29;7.93;;;1.17;;
13269;SDS011;6703;51.994;7.570;2023-05-17T11:33:57;10.57;;;1.55;;
13269;SDS011;6703;51.994;7.570;2023-05-17T11:36:25;9.33;;;1.37;;
13269;SDS011;6703;51.994;7.570;2023-05-17T11:39:08;13.10;;;1.73;;
13269;SDS011;6703;51.994;7.570;2023-05-17T11:41:39;10.55;;;1.35;;
13269;SDS011;6703;51.994;7.570;2023-05-17T11:44:15;12.25;;;1.70;;
13269;SDS011;6703;51.994;7.570;2023-05-17T11:46:44;18.80;;;2.35;;
13269;SDS011;6703;51.994;7.570;2023-05-17T11:49:12;10.10;;;1.30;;
13269;SDS011;6703;51.994;7.570;2023-05-17T11:51:59;12.73;;;1.63;;
13269;SDS011;6703;51.994;7.570;2023-05-17T11:54:27;9.48;;;1.75;;
13269;SDS011;6703;51.994;7.570;2023-05-17T11:56:58;13.77;;;1.77;;
13269;SDS011;6703;51.994;7.570;2023-05-17T11:59:28;10.10;;;1.77;;
13269;SDS011;6703;51.994;7.570;2023-05-17T12:01:56;14.80;;;2.03;;
13269;SDS011;6703;51.994;7.570;2023-05-17T12:04:24;12.98;;;1.70;;
13269;SDS011;6703;51.994;7.570;2023-05-17T12:06:53;7.90;;;1.63;;
13269;SDS011;6703;51.994;7.570;2023-05-17T12:09:21;9.80;;;1.65;;
13269;SDS011;6703;51.994;7.570;2023-05-17T12:11:51;12.00;;;2.00;;
13269;SDS011;6703;51.994;7.570;2023-05-17T12:14:24;14.65;;;1.80;;
13269;SDS011;6703;51.994;7.570;2023-05-17T12:16:53;14.27;;;1.83;;
13269;SDS011;6703;51.994;7.570;2023-05-17T12:19:22;12.97;;;1.60;;
13269;SDS011;6703;51.994;7.570;2023-05-17T12:21:53;19.92;;;1.65;;
13269;SDS011;6703;51.994;7.570;2023-05-17T12:24:20;10.68;;;1.80;;
13269;SDS011;6703;51.994;7.570;2023-05-17T12:26:48;17.55;;;1.70;;
13269;SDS011;6703;51.994;7.570;2023-05-17T12:29:18;9.60;;;1.48;;
13269;SDS011;6703;51.994;7.570;2023-05-17T12:31:49;7.78;;;1.90;;
13269;SDS011;6703;51.994;7.570;2023-05-17T12:34:18;11.70;;;1.70;;
13269;SDS011;6703;51.994;7.570;2023-05-17T12:36:47;10.38;;;1.88;;
13269;SDS011;6703;51.994;7.570;2023-05-17T12:39:15;9.27;;;1.60;;
13269;SDS011;6703;51.994;7.570;2023-05-17T12:41:49;9.63;;;2.10;;
13269;SDS011;6703;51.994;7.570;2023-05-17T12:44:17;9.68;;;2.22;;
13269;SDS011;6703;51.994;7.570;2023-05-17T12:46:46;8.85;;;1.50;;
13269;SDS011;6703;51.994;7.570;2023-05-17T12:49:20;8.98;;;1.65;;
13269;SDS011;6703;51.994;7.570;2023-05-17T12:51:48;9.27;;;1.50;;
13269;SDS011;6703;51.994;7.570;2023-05-17T12:54:24;8.55;;;1.52;;
13269;SDS011;6703;51.994;7.570;2023-05-17T12:56:53;15.27;;;2.03;;
13269;SDS011;6703;51.994;7.570;2023-05-17T12:59:21;10.25;;;1.63;;
13269;SDS011;6703;51.994;7.570;2023-05-17T13:01:51;14.77;;;2.20;;
13269;SDS011;6703;51.994;7.570;2023-05-17T13:04:26;8.45;;;1.40;;
13269;SDS011;6703;51.994;7.570;2023-05-17T13:06:57;9.95;;;1.45;;
13269;SDS011;6703;51.994;7.570;2023-05-17T13:09:26;9.77;;;1.70;;
13269;SDS011;6703;51.994;7.570;2023-05-17T13:11:57;11.82;;;2.10;;
13269;SDS011;6703;51.994;7.570;2023-05-17T13:14:33;10.50;;;1.67;;
13269;SDS011;6703;51.994;7.570;2023-05-17T13:17:02;5.32;;;1.55;;
13269;SDS011;6703;51.994;7.570;2023-05-17T13:19:32;13.88;;;2.25;;
13269;SDS011;6703;51.994;7.570;2023-05-17T13:22:01;9.57;;;1.47;;
13269;SDS011;6703;51.994;7.570;2023-05-17T13:24:29;7.97;;;1.67;;
13269;SDS011;6703;51.994;7.570;2023-05-17T13:26:57;11.00;;;2.00;;
13269;SDS011;6703;51.994;7.570;2023-05-17T13:29:25;9.48;;;1.33;;
13269;SDS011;6703;51.994;7.570;2023-05-17T13:32:04;11.30;;;1.52;;
13269;SDS011;6703;51.994;7.570;2023-05-17T13:34:34;7.28;;;1.23;;
13269;SDS011;6703;51.994;7.570;2023-05-17T13:37:02;9.85;;;1.50;;
13269;SDS011;6703;51.994;7.570;2023-05-17T13:39:32;6.97;;;1.80;;
13269;SDS011;6703;51.994;7.570;2023-05-17T13:42:00;14.23;;;1.40;;
13269;SDS011;6703;51.994;7.570;2023-05-17T13:44:28;9.13;;;1.48;;
13269;SDS011;6703;51.994;7.570;2023-05-17T13:46:56;9.60;;;1.30;;
13269;SDS011;6703;51.994;7.570;2023-05-17T13:49:24;8.68;;;1.60;;
13269;SDS011;6703;51.994;7.570;2023-05-17T13:51:54;12.85;;;1.67;;
13269;SDS011;6703;51.994;7.570;2023-05-17T13:54:22;9.90;;;1.83;;
13269;SDS011;6703;51.994;7.570;2023-05-17T13:56:50;7.00;;;1.58;;
13269;SDS011;6703;51.994;7.570;2023-05-17T13:59:20;10.90;;;1.50;;
13269;SDS011;6703;51.994;7.570;2023-05-17T14:01:47;9.50;;;1.65;;
13269;SDS011;6703;51.994;7.570;2023-05-17T14:04:15;7.85;;;1.33;;
13269;SDS011;6703;51.994;7.570;2023-05-17T14:06:43;12.27;;;1.73;;
13269;SDS011;6703;51.994;7.570;2023-05-17T14:09:15;8.40;;;1.80;;
13269;SDS011;6703;51.994;7.570;2023-05-17T14:11:44;9.57;;;1.50;;
13269;SDS011;6703;51.994;7.570;2023-05-17T14:14:11;9.63;;;1.80;;
13269;SDS011;6703;51.994;7.570;2023-05-17T14:16:39;10.93;;;1.60;;
13269;SDS011;6703;51.994;7.570;2023-05-17T14:19:07;8.70;;;1.48;;
13269;SDS011;6703;51.994;7.570;2023-05-17T14:21:35;10.20;;;1.60;;
13269;SDS011;6703;51.994;7.570;2023-05-17T14:24:03;10.65;;;1.80;;
13269;SDS011;6703;51.994;7.570;2023-05-17T14:26:33;9.60;;;1.70;;
13269;SDS011;6703;51.994;7.570;2023-05-17T14:29:01;9.82;;;1.77;;
13269;SDS011;6703;51.994;7.570;2023-05-17T14:31:30;16.33;;;1.80;;
13269;SDS011;6703;51.994;7.570;2023-05-17T14:33:59;12.65;;;1.75;;
13269;SDS011;6703;51.994;7.570;2023-05-17T14:36:28;9.03;;;1.73;;
13269;SDS011;6703;51.994;7.570;2023-05-17T14:38:57;6.95;;;1.55;;
13269;SDS011;6703;51.994;7.570;2023-05-17T14:41:24;10.63;;;1.80;;
13269;SDS011;6703;51.994;7.570;2023-05-17T14:43:54;10.45;;;1.67;;
13269;SDS011;6703;51.994;7.570;2023-05-17T14:46:22;6.47;;;1.50;;
13269;SDS011;6703;51.994;7.570;2023-05-17T14:48:50;10.38;;;1.67;;
13269;SDS011;6703;51.994;7.570;2023-05-17T14:51:18;10.82;;;1.60;;
13269;SDS011;6703;51.994;7.570;2023-05-17T14:53:46;9.30;;;1.80;;
13269;SDS011;6703;51.994;7.570;2023-05-17T14:56:13;9.77;;;1.58;;
13269;SDS011;6703;51.994;7.570;2023-05-17T14:58:42;7.97;;;1.60;;
13269;SDS011;6703;51.994;7.570;2023-05-17T15:01:11;8.65;;;1.58;;
13269;SDS011;6703;51.994;7.570;2023-05-17T15:03:38;8.00;;;1.45;;
13269;SDS011;6703;51.994;7.570;2023-05-17T15:06:09;9.05;;;1.40;;
13269;SDS011;6703;51.994;7.570;2023-05-17T15:08:38;7.13;;;1.73;;